Terminal Aerodrome Forecast
Issued by NWS

Home | Current Version | Previous Version | Text Only | Print | Product List | Glossary On
Versions: 1 2 3 4 5 6 7 8 9 10 11 12 13 14 15 16 17 18 19 20 21 22 23
000
FTUS44 KSJT 251100
TAFSOA
TAF
KSOA 251121Z 2512/2612 29005KT P6SM SCT250
     FM251800 01012G18KT P6SM SCT250
     FM260000 35003KT P6SM FEW250=

USA.gov is the U.S. government's official web portal to all federal, state and local government web resources and services.